In Rescue
 
Open Full Screen Window  High Contrast Mode
Wind Gusting 00 knots
08
December 19, 2018 10:20 AM EST
Weather Information
Wind Direction
  200 °
Wind Speed
  08 kt (9 mph)
Wind Gust
  00 kt (0 mph)
Altimeter
30.01 in
Visibility
10 SM
Temperature
01° C
34° F
Dewpoint
-01° C
30° F
Humidity
87%
1hr Rain Fall
00.00 in.
24hr Rain Fall
00.00 in.
Sky Condition
Clear
VFR

METAR KONZ 191520Z AUTO 20008KT 10SM CLR 01/M01 A3001 RMK AO2 T00141010

FAA Disclaimer: The data displayed is for advisory purposes only and is not to be used for flight planning or operations.